Taiheimaru — JM6135 — position and weather

sailwx.info

Track history (hours):
 
Tides and Currents Weather Stations Pressure Air Temp Water Temp Dewpoint Dewpoint Depression Visibility Wind Speed Wind Dir Waves Ship Positions

Taiheimaru

Last reported at 2014-Oct-31 11:15 UTC. Time now 2014-Oct-31 21:30 UTC.
Position N 34°37' E 134°56'.

Length 78 m.

Type: Cargo ship. MMSI: 431400082.

Date/timePositionNaut miles runAvg speedWind from/ knotsBaromVisibWave heightAir tempDewpointWater temp
2014-Oct-31 11:15N 34°37' E 134°56'6 8.6
2014-Oct-31 10:33N 34°36' E 135°03'1010.0
2014-Oct-31 09:33N 34°39' E 135°15'1 0.7
2014-Oct-31 08:32N 34°40' E 135°14'0 0.0
2014-Oct-31 07:28N 34°40' E 135°14'2 1.7
2014-Oct-31 06:33N 34°38' E 135°15'10 9.7
2014-Oct-31 05:31N 34°36' E 135°03'128 6.8
2014-Oct-30 10:33N 34°18' E 132°29'3 3.2
2014-Oct-30 09:28N 34°21' E 132°26'0 0.0
2014-Oct-30 07:22N 34°21' E 132°26'127 6.7
2014-Oct-29 12:25N 34°37' E 134°59'910.2
2014-Oct-29 11:32N 34°36' E 135°10'5 5.0
2014-Oct-29 10:33N 34°39' E 135°14'0 0.0
2014-Oct-29 09:32N 34°39' E 135°14'0 0.0
2014-Oct-29 08:33N 34°39' E 135°14'0 0.0
2014-Oct-29 07:33N 34°39' E 135°14'0 0.0
2014-Oct-29 06:30N 34°39' E 135°14'0 0.0
2014-Oct-29 05:30N 34°39' E 135°14'2 2.2
2014-Oct-29 04:28N 34°41' E 135°13'0 0.0
2014-Oct-29 03:33N 34°41' E 135°13'0 0.0
2014-Oct-29 02:29N 34°41' E 135°13'0 0.0
2014-Oct-29 01:34N 34°41' E 135°13'0 0.0
2014-Oct-29 00:30N 34°41' E 135°13'0 0.0
2014-Oct-28 23:32N 34°41' E 135°13'0 0.0
2014-Oct-28 22:25N 34°41' E 135°13'0 0.0
2014-Oct-28 21:28N 34°41' E 135°13'0 0.0
2014-Oct-28 20:28N 34°41' E 135°13'5 5.7
2014-Oct-28 19:33N 34°37' E 135°11'11 0.3
2014-Oct-27 07:32N 34°37' E 134°58'8 7.4
2014-Oct-27 06:30N 34°36' E 135°07'1110.8
2014-Oct-27 05:30N 34°38' E 135°20'2 0.8
2014-Oct-27 03:32N 34°38' E 135°22'6 6.3
2014-Oct-27 02:33N 34°39' E 135°14'0 0.2
2014-Oct-27 01:27N 34°39' E 135°15'2 2.8
2014-Oct-27 00:33N 34°41' E 135°13'0 0.0
2014-Oct-26 23:33N 34°41' E 135°13'0 0.0
2014-Oct-26 22:28N 34°41' E 135°13'0 0.1
2014-Oct-26 21:33N 34°41' E 135°13'0 0.0
2014-Oct-26 20:33N 34°41' E 135°13'0 0.0
2014-Oct-26 19:33N 34°41' E 135°13'0 0.0
2014-Oct-26 18:29N 34°41' E 135°13'0 0.0
2014-Oct-26 17:29N 34°41' E 135°13'0 0.0
2014-Oct-26 16:17N 34°41' E 135°13'0 0.0
2014-Oct-26 15:29N 34°41' E 135°13'0 0.0
2014-Oct-26 14:31N 34°41' E 135°13'0 0.0
2014-Oct-26 13:33N 34°41' E 135°13'0 0.0
2014-Oct-26 12:31N 34°41' E 135°13'0 0.0
2014-Oct-26 11:31N 34°41' E 135°13'0 0.0
2014-Oct-26 10:18N 34°41' E 135°13'0 0.1
2014-Oct-26 09:30N 34°41' E 135°13'0 0.1
2014-Oct-26 08:33N 34°41' E 135°13'0 0.0
2014-Oct-26 07:30N 34°41' E 135°13'5 5.1
2014-Oct-26 06:33N 34°37' E 135°12'13 0.3
2014-Oct-24 05:25N 34°37' E 134°56'7 7.7
2014-Oct-24 04:32N 34°36' E 135°04'1210.5
2014-Oct-24 03:24N 34°38' E 135°18'6 6.4
2014-Oct-24 02:31N 34°38' E 135°25'0 0.1
2014-Oct-24 01:30N 34°37' E 135°25'9 9.1
2014-Oct-24 00:31N 34°40' E 135°14'0 0.0
2014-Oct-23 23:31N 34°40' E 135°14'1 1.0
2014-Oct-23 22:24N 34°38' E 135°15'0 0.1
2014-Oct-23 21:30N 34°38' E 135°15'8 8.5
2014-Oct-23 20:33N 34°35' E 135°06'137 9.0
2014-Oct-23 05:21N 34°17' E 132°22'5 6.0
2014-Oct-23 04:30N 34°21' E 132°26'0 0.0
2014-Oct-23 03:30N 34°21' E 132°26'134 7.1
2014-Oct-22 08:33N 34°36' E 135°07'7 6.4
2014-Oct-22 07:30N 34°40' E 135°14'0 0.0
2014-Oct-22 06:30N 34°40' E 135°14'2 2.2
2014-Oct-22 05:28N 34°41' E 135°13'0 0.0
2014-Oct-22 04:30N 34°41' E 135°13'0 0.0
2014-Oct-22 03:30N 34°41' E 135°13'0 0.0
2014-Oct-22 02:24N 34°41' E 135°13'0 0.1
2014-Oct-22 01:31N 34°41' E 135°13'0 0.0
2014-Oct-22 00:13N 34°41' E 135°13'0 0.1
2014-Oct-21 23:28N 34°41' E 135°13'0 0.0
2014-Oct-21 22:24N 34°41' E 135°13'5 6.1
2014-Oct-21 21:32N 34°36' E 135°11'  
Track history (hours):
 
Tides and Currents Weather Stations Pressure Air Temp Water Temp Dewpoint Dewpoint Depression Visibility Wind Speed Wind Dir Waves Ship Positions

Taiheimaru

Last reported at 2014-Oct-31 11:15 UTC. Time now 2014-Oct-31 21:30 UTC.
Position N 34°37' E 134°56'.

Length 78 m.

Type: Cargo ship. MMSI: 431400082.

Date/timePositionNaut miles runAvg speedWind from/ knotsBaromVisibWave heightAir tempDewpointWater temp
2014-Oct-31 11:15N 34°37' E 134°56'6 8.6
2014-Oct-31 10:33N 34°36' E 135°03'1010.0
2014-Oct-31 09:33N 34°39' E 135°15'1 0.7
2014-Oct-31 08:32N 34°40' E 135°14'0 0.0
2014-Oct-31 07:28N 34°40' E 135°14'2 1.7
2014-Oct-31 06:33N 34°38' E 135°15'10 9.7
2014-Oct-31 05:31N 34°36' E 135°03'128 6.8
2014-Oct-30 10:33N 34°18' E 132°29'3 3.2
2014-Oct-30 09:28N 34°21' E 132°26'0 0.0
2014-Oct-30 07:22N 34°21' E 132°26'127 6.7
2014-Oct-29 12:25N 34°37' E 134°59'910.2
2014-Oct-29 11:32N 34°36' E 135°10'5 5.0
2014-Oct-29 10:33N 34°39' E 135°14'0 0.0
2014-Oct-29 09:32N 34°39' E 135°14'0 0.0
2014-Oct-29 08:33N 34°39' E 135°14'0 0.0
2014-Oct-29 07:33N 34°39' E 135°14'0 0.0
2014-Oct-29 06:30N 34°39' E 135°14'0 0.0
2014-Oct-29 05:30N 34°39' E 135°14'2 2.2
2014-Oct-29 04:28N 34°41' E 135°13'0 0.0
2014-Oct-29 03:33N 34°41' E 135°13'0 0.0
2014-Oct-29 02:29N 34°41' E 135°13'0 0.0
2014-Oct-29 01:34N 34°41' E 135°13'0 0.0
2014-Oct-29 00:30N 34°41' E 135°13'0 0.0
2014-Oct-28 23:32N 34°41' E 135°13'0 0.0
2014-Oct-28 22:25N 34°41' E 135°13'0 0.0
2014-Oct-28 21:28N 34°41' E 135°13'0 0.0
2014-Oct-28 20:28N 34°41' E 135°13'5 5.7
2014-Oct-28 19:33N 34°37' E 135°11'11 0.3
2014-Oct-27 07:32N 34°37' E 134°58'8 7.4
2014-Oct-27 06:30N 34°36' E 135°07'1110.8
2014-Oct-27 05:30N 34°38' E 135°20'2 0.8
2014-Oct-27 03:32N 34°38' E 135°22'6 6.3
2014-Oct-27 02:33N 34°39' E 135°14'0 0.2
2014-Oct-27 01:27N 34°39' E 135°15'2 2.8
2014-Oct-27 00:33N 34°41' E 135°13'0 0.0
2014-Oct-26 23:33N 34°41' E 135°13'0 0.0
2014-Oct-26 22:28N 34°41' E 135°13'0 0.1
2014-Oct-26 21:33N 34°41' E 135°13'0 0.0
2014-Oct-26 20:33N 34°41' E 135°13'0 0.0
2014-Oct-26 19:33N 34°41' E 135°13'0 0.0
2014-Oct-26 18:29N 34°41' E 135°13'0 0.0
2014-Oct-26 17:29N 34°41' E 135°13'0 0.0
2014-Oct-26 16:17N 34°41' E 135°13'0 0.0
2014-Oct-26 15:29N 34°41' E 135°13'0 0.0
2014-Oct-26 14:31N 34°41' E 135°13'0 0.0
2014-Oct-26 13:33N 34°41' E 135°13'0 0.0
2014-Oct-26 12:31N 34°41' E 135°13'0 0.0
2014-Oct-26 11:31N 34°41' E 135°13'0 0.0
2014-Oct-26 10:18N 34°41' E 135°13'0 0.1
2014-Oct-26 09:30N 34°41' E 135°13'0 0.1
2014-Oct-26 08:33N 34°41' E 135°13'0 0.0
2014-Oct-26 07:30N 34°41' E 135°13'5 5.1
2014-Oct-26 06:33N 34°37' E 135°12'13 0.3
2014-Oct-24 05:25N 34°37' E 134°56'7 7.7
2014-Oct-24 04:32N 34°36' E 135°04'1210.5
2014-Oct-24 03:24N 34°38' E 135°18'6 6.4
2014-Oct-24 02:31N 34°38' E 135°25'0 0.1
2014-Oct-24 01:30N 34°37' E 135°25'9 9.1
2014-Oct-24 00:31N 34°40' E 135°14'0 0.0
2014-Oct-23 23:31N 34°40' E 135°14'1 1.0
2014-Oct-23 22:24N 34°38' E 135°15'0 0.1
2014-Oct-23 21:30N 34°38' E 135°15'8 8.5
2014-Oct-23 20:33N 34°35' E 135°06'137 9.0
2014-Oct-23 05:21N 34°17' E 132°22'5 6.0
2014-Oct-23 04:30N 34°21' E 132°26'0 0.0
2014-Oct-23 03:30N 34°21' E 132°26'134 7.1
2014-Oct-22 08:33N 34°36' E 135°07'7 6.4
2014-Oct-22 07:30N 34°40' E 135°14'0 0.0
2014-Oct-22 06:30N 34°40' E 135°14'2 2.2
2014-Oct-22 05:28N 34°41' E 135°13'0 0.0
2014-Oct-22 04:30N 34°41' E 135°13'0 0.0
2014-Oct-22 03:30N 34°41' E 135°13'0 0.0
2014-Oct-22 02:24N 34°41' E 135°13'0 0.1
2014-Oct-22 01:31N 34°41' E 135°13'0 0.0
2014-Oct-22 00:13N 34°41' E 135°13'0 0.1
2014-Oct-21 23:28N 34°41' E 135°13'0 0.0
2014-Oct-21 22:24N 34°41' E 135°13'5 6.1
2014-Oct-21 21:32N 34°36' E 135°11'  

Dump ship's entire track history